sensor_id;sensor_type;location;lat;lon;timestamp;temperature;humidity
62424;DHT22;48463;43.604;3.872;2023-08-20T00:01:47;25.70;99.90
62424;DHT22;48463;43.604;3.872;2023-08-20T00:04:16;25.80;99.90
62424;DHT22;48463;43.604;3.872;2023-08-20T00:06:43;25.80;99.90
62424;DHT22;48463;43.604;3.872;2023-08-20T00:09:09;25.70;99.90
62424;DHT22;48463;43.604;3.872;2023-08-20T00:11:36;25.60;99.90
62424;DHT22;48463;43.604;3.872;2023-08-20T00:14:01;25.70;99.90
62424;DHT22;48463;43.604;3.872;2023-08-20T00:16:28;25.70;99.90
62424;DHT22;48463;43.604;3.872;2023-08-20T00:18:54;25.60;99.90
62424;DHT22;48463;43.604;3.872;2023-08-20T00:21:20;25.40;99.90
62424;DHT22;48463;43.604;3.872;2023-08-20T00:23:46;25.40;99.90
62424;DHT22;48463;43.604;3.872;2023-08-20T00:26:13;25.40;99.90
62424;DHT22;48463;43.604;3.872;2023-08-20T00:28:39;25.40;99.90
62424;DHT22;48463;43.604;3.872;2023-08-20T00:31:04;25.30;99.90
62424;DHT22;48463;43.604;3.872;2023-08-20T00:33:31;25.30;99.90
62424;DHT22;48463;43.604;3.872;2023-08-20T00:35:57;25.20;99.90
62424;DHT22;48463;43.604;3.872;2023-08-20T00:38:22;25.20;99.90
62424;DHT22;48463;43.604;3.872;2023-08-20T00:40:49;25.30;99.90
62424;DHT22;48463;43.604;3.872;2023-08-20T00:43:15;25.50;99.90
62424;DHT22;48463;43.604;3.872;2023-08-20T00:45:41;25.70;99.90
62424;DHT22;48463;43.604;3.872;2023-08-20T00:48:08;25.80;99.90
62424;DHT22;48463;43.604;3.872;2023-08-20T00:50:34;25.70;99.90
62424;DHT22;48463;43.604;3.872;2023-08-20T00:53:00;25.70;99.90
62424;DHT22;48463;43.604;3.872;2023-08-20T00:55:26;25.70;99.90
62424;DHT22;48463;43.604;3.872;2023-08-20T00:57:52;25.50;99.90
62424;DHT22;48463;43.604;3.872;2023-08-20T01:00:18;25.50;99.90
62424;DHT22;48463;43.604;3.872;2023-08-20T01:02:43;25.60;99.90
62424;DHT22;48463;43.604;3.872;2023-08-20T01:05:11;25.60;99.90
62424;DHT22;48463;43.604;3.872;2023-08-20T01:07:56;25.50;99.90
62424;DHT22;48463;43.604;3.872;2023-08-20T01:11:00;25.40;99.90
62424;DHT22;48463;43.604;3.872;2023-08-20T01:13:26;25.30;99.90
62424;DHT22;48463;43.604;3.872;2023-08-20T01:15:52;25.20;99.90
62424;DHT22;48463;43.604;3.872;2023-08-20T01:18:18;25.30;99.90
62424;DHT22;48463;43.604;3.872;2023-08-20T01:21:00;25.30;99.90
62424;DHT22;48463;43.604;3.872;2023-08-20T01:26:56;25.40;99.90
62424;DHT22;48463;43.604;3.872;2023-08-20T01:29:27;25.40;99.90
62424;DHT22;48463;43.604;3.872;2023-08-20T01:31:55;25.40;99.90
62424;DHT22;48463;43.604;3.872;2023-08-20T01:34:21;25.20;99.90
62424;DHT22;48463;43.604;3.872;2023-08-20T01:36:47;24.70;99.90
62424;DHT22;48463;43.604;3.872;2023-08-20T01:39:13;24.60;99.90
62424;DHT22;48463;43.604;3.872;2023-08-20T01:41:39;24.50;99.90
62424;DHT22;48463;43.604;3.872;2023-08-20T01:44:06;24.50;99.90
62424;DHT22;48463;43.604;3.872;2023-08-20T01:46:31;24.50;99.90
62424;DHT22;48463;43.604;3.872;2023-08-20T01:48:57;24.60;99.90
62424;DHT22;48463;43.604;3.872;2023-08-20T01:51:23;24.70;99.90
62424;DHT22;48463;43.604;3.872;2023-08-20T01:53:48;24.60;99.90
62424;DHT22;48463;43.604;3.872;2023-08-20T01:56:14;24.60;99.90
62424;DHT22;48463;43.604;3.872;2023-08-20T01:58:40;24.60;99.90
62424;DHT22;48463;43.604;3.872;2023-08-20T02:01:05;24.60;99.90
62424;DHT22;48463;43.604;3.872;2023-08-20T02:03:31;24.50;99.90
62424;DHT22;48463;43.604;3.872;2023-08-20T02:05:57;24.40;99.90
62424;DHT22;48463;43.604;3.872;2023-08-20T02:08:22;24.30;99.90
62424;DHT22;48463;43.604;3.872;2023-08-20T02:10:48;24.30;99.90
62424;DHT22;48463;43.604;3.872;2023-08-20T02:13:14;24.30;99.90
62424;DHT22;48463;43.604;3.872;2023-08-20T02:15:39;24.30;99.90
62424;DHT22;48463;43.604;3.872;2023-08-20T02:18:05;24.30;99.90
62424;DHT22;48463;43.604;3.872;2023-08-20T02:20:31;24.20;99.90
62424;DHT22;48463;43.604;3.872;2023-08-20T02:22:56;24.30;99.90
62424;DHT22;48463;43.604;3.872;2023-08-20T02:25:23;24.30;99.90
62424;DHT22;48463;43.604;3.872;2023-08-20T02:27:50;24.30;99.90
62424;DHT22;48463;43.604;3.872;2023-08-20T02:30:16;24.30;99.90
62424;DHT22;48463;43.604;3.872;2023-08-20T02:32:42;24.40;99.90
62424;DHT22;48463;43.604;3.872;2023-08-20T02:35:08;24.40;99.90
62424;DHT22;48463;43.604;3.872;2023-08-20T02:37:33;24.40;99.90
62424;DHT22;48463;43.604;3.872;2023-08-20T02:39:59;24.50;99.90
62424;DHT22;48463;43.604;3.872;2023-08-20T02:42:25;24.60;99.90
62424;DHT22;48463;43.604;3.872;2023-08-20T02:44:50;24.70;99.90
62424;DHT22;48463;43.604;3.872;2023-08-20T02:47:16;24.60;99.90
62424;DHT22;48463;43.604;3.872;2023-08-20T02:49:41;24.50;99.90
62424;DHT22;48463;43.604;3.872;2023-08-20T02:52:07;24.40;99.90
62424;DHT22;48463;43.604;3.872;2023-08-20T02:54:33;24.40;99.90
62424;DHT22;48463;43.604;3.872;2023-08-20T02:56:59;24.30;99.90
62424;DHT22;48463;43.604;3.872;2023-08-20T02:59:24;24.30;99.90
62424;DHT22;48463;43.604;3.872;2023-08-20T03:01:50;24.30;99.90
62424;DHT22;48463;43.604;3.872;2023-08-20T03:04:16;24.30;99.90
62424;DHT22;48463;43.604;3.872;2023-08-20T03:06:41;24.20;99.90
62424;DHT22;48463;43.604;3.872;2023-08-20T03:09:07;24.20;99.90
62424;DHT22;48463;43.604;3.872;2023-08-20T03:11:33;24.20;99.90
62424;DHT22;48463;43.604;3.872;2023-08-20T03:13:58;24.10;99.90
62424;DHT22;48463;43.604;3.872;2023-08-20T03:16:24;24.00;99.90
62424;DHT22;48463;43.604;3.872;2023-08-20T03:18:50;24.00;99.90
62424;DHT22;48463;43.604;3.872;2023-08-20T03:21:15;23.90;99.90
62424;DHT22;48463;43.604;3.872;2023-08-20T03:23:41;23.90;99.90
62424;DHT22;48463;43.604;3.872;2023-08-20T03:26:06;23.80;99.90
62424;DHT22;48463;43.604;3.872;2023-08-20T03:28:32;23.70;99.90
62424;DHT22;48463;43.604;3.872;2023-08-20T03:31:01;23.70;99.90
62424;DHT22;48463;43.604;3.872;2023-08-20T03:33:27;23.70;99.90
62424;DHT22;48463;43.604;3.872;2023-08-20T03:35:53;23.80;99.90
62424;DHT22;48463;43.604;3.872;2023-08-20T03:38:18;23.60;99.90
62424;DHT22;48463;43.604;3.872;2023-08-20T03:40:44;23.60;99.90
62424;DHT22;48463;43.604;3.872;2023-08-20T03:43:10;23.60;99.90
62424;DHT22;48463;43.604;3.872;2023-08-20T03:45:36;23.70;99.90
62424;DHT22;48463;43.604;3.872;2023-08-20T03:48:02;23.60;99.90
62424;DHT22;48463;43.604;3.872;2023-08-20T03:50:27;23.60;99.90
62424;DHT22;48463;43.604;3.872;2023-08-20T03:52:53;23.60;99.90
62424;DHT22;48463;43.604;3.872;2023-08-20T03:55:19;23.50;99.90
62424;DHT22;48463;43.604;3.872;2023-08-20T03:57:45;23.60;99.90
62424;DHT22;48463;43.604;3.872;2023-08-20T04:00:11;23.70;99.90
62424;DHT22;48463;43.604;3.872;2023-08-20T04:02:37;23.60;99.90
62424;DHT22;48463;43.604;3.872;2023-08-20T04:05:04;23.50;99.90
62424;DHT22;48463;43.604;3.872;2023-08-20T04:07:29;23.60;99.90
62424;DHT22;48463;43.604;3.872;2023-08-20T04:09:55;23.60;99.90
62424;DHT22;48463;43.604;3.872;2023-08-20T04:12:21;23.50;99.90
62424;DHT22;48463;43.604;3.872;2023-08-20T04:14:47;23.50;99.90
62424;DHT22;48463;43.604;3.872;2023-08-20T04:17:12;23.40;99.90
62424;DHT22;48463;43.604;3.872;2023-08-20T04:19:38;23.40;99.90
62424;DHT22;48463;43.604;3.872;2023-08-20T04:22:04;23.40;99.90
62424;DHT22;48463;43.604;3.872;2023-08-20T04:24:29;23.40;99.90
62424;DHT22;48463;43.604;3.872;2023-08-20T04:26:55;23.50;99.90
62424;DHT22;48463;43.604;3.872;2023-08-20T04:29:22;23.50;99.90
62424;DHT22;48463;43.604;3.872;2023-08-20T04:31:48;23.40;99.90
62424;DHT22;48463;43.604;3.872;2023-08-20T04:34:13;23.30;99.90
62424;DHT22;48463;43.604;3.872;2023-08-20T04:36:39;23.30;99.90
62424;DHT22;48463;43.604;3.872;2023-08-20T04:39:04;23.30;99.90
62424;DHT22;48463;43.604;3.872;2023-08-20T04:41:30;23.30;99.90
62424;DHT22;48463;43.604;3.872;2023-08-20T04:43:56;23.30;99.90
62424;DHT22;48463;43.604;3.872;2023-08-20T04:46:21;23.30;99.90
62424;DHT22;48463;43.604;3.872;2023-08-20T04:48:47;23.30;99.90
62424;DHT22;48463;43.604;3.872;2023-08-20T04:51:13;23.40;99.90
62424;DHT22;48463;43.604;3.872;2023-08-20T04:53:39;23.30;99.90
62424;DHT22;48463;43.604;3.872;2023-08-20T04:56:04;23.40;99.90
62424;DHT22;48463;43.604;3.872;2023-08-20T04:58:30;23.40;99.90
62424;DHT22;48463;43.604;3.872;2023-08-20T05:00:55;23.40;99.90
62424;DHT22;48463;43.604;3.872;2023-08-20T05:03:21;23.40;99.90
62424;DHT22;48463;43.604;3.872;2023-08-20T05:05:50;23.40;99.90
62424;DHT22;48463;43.604;3.872;2023-08-20T05:08:16;23.40;99.90
62424;DHT22;48463;43.604;3.872;2023-08-20T05:10:42;23.40;99.90
62424;DHT22;48463;43.604;3.872;2023-08-20T05:13:08;23.40;99.90
62424;DHT22;48463;43.604;3.872;2023-08-20T05:15:34;23.40;99.90
62424;DHT22;48463;43.604;3.872;2023-08-20T05:18:01;23.30;99.90
62424;DHT22;48463;43.604;3.872;2023-08-20T05:20:27;23.30;99.90
62424;DHT22;48463;43.604;3.872;2023-08-20T05:22:53;23.30;99.90
62424;DHT22;48463;43.604;3.872;2023-08-20T05:25:18;23.30;99.90
62424;DHT22;48463;43.604;3.872;2023-08-20T05:27:44;23.30;99.90
62424;DHT22;48463;43.604;3.872;2023-08-20T05:30:10;23.40;99.90
62424;DHT22;48463;43.604;3.872;2023-08-20T05:32:36;23.50;99.90
62424;DHT22;48463;43.604;3.872;2023-08-20T05:35:01;23.40;99.90
62424;DHT22;48463;43.604;3.872;2023-08-20T05:37:29;23.50;99.90
62424;DHT22;48463;43.604;3.872;2023-08-20T05:39:55;23.50;99.90
62424;DHT22;48463;43.604;3.872;2023-08-20T05:42:20;23.60;99.90
62424;DHT22;48463;43.604;3.872;2023-08-20T05:44:47;23.70;99.90
62424;DHT22;48463;43.604;3.872;2023-08-20T05:47:13;23.80;99.90
62424;DHT22;48463;43.604;3.872;2023-08-20T05:49:38;23.80;99.90
62424;DHT22;48463;43.604;3.872;2023-08-20T05:52:05;23.90;99.90
62424;DHT22;48463;43.604;3.872;2023-08-20T05:54:31;23.80;99.90
62424;DHT22;48463;43.604;3.872;2023-08-20T05:56:57;23.80;99.90
62424;DHT22;48463;43.604;3.872;2023-08-20T05:59:23;23.90;99.90
62424;DHT22;48463;43.604;3.872;2023-08-20T06:01:49;24.00;99.90
62424;DHT22;48463;43.604;3.872;2023-08-20T06:04:15;24.10;99.90
62424;DHT22;48463;43.604;3.872;2023-08-20T06:06:41;24.00;99.90
62424;DHT22;48463;43.604;3.872;2023-08-20T06:09:07;24.10;99.90
62424;DHT22;48463;43.604;3.872;2023-08-20T06:11:32;24.20;99.90
62424;DHT22;48463;43.604;3.872;2023-08-20T06:13:58;24.20;99.90
62424;DHT22;48463;43.604;3.872;2023-08-20T06:16:23;24.30;99.90
62424;DHT22;48463;43.604;3.872;2023-08-20T06:18:50;24.40;99.90
62424;DHT22;48463;43.604;3.872;2023-08-20T06:21:16;24.50;99.80
62424;DHT22;48463;43.604;3.872;2023-08-20T06:23:42;24.50;99.80
62424;DHT22;48463;43.604;3.872;2023-08-20T06:26:09;24.60;99.60
62424;DHT22;48463;43.604;3.872;2023-08-20T06:28:37;24.70;99.50
62424;DHT22;48463;43.604;3.872;2023-08-20T06:31:03;24.70;99.20
62424;DHT22;48463;43.604;3.872;2023-08-20T06:33:28;24.80;99.20
62424;DHT22;48463;43.604;3.872;2023-08-20T06:35:54;24.90;99.20
62424;DHT22;48463;43.604;3.872;2023-08-20T06:38:20;25.00;99.00
62424;DHT22;48463;43.604;3.872;2023-08-20T06:40:46;25.10;98.90
62424;DHT22;48463;43.604;3.872;2023-08-20T06:43:13;25.20;98.70
62424;DHT22;48463;43.604;3.872;2023-08-20T06:45:38;25.20;98.60
62424;DHT22;48463;43.604;3.872;2023-08-20T06:48:04;25.40;98.50
62424;DHT22;48463;43.604;3.872;2023-08-20T06:50:31;25.50;98.30
62424;DHT22;48463;43.604;3.872;2023-08-20T06:52:56;25.60;98.30
62424;DHT22;48463;43.604;3.872;2023-08-20T06:55:22;25.70;98.10
62424;DHT22;48463;43.604;3.872;2023-08-20T06:57:47;25.90;97.70
62424;DHT22;48463;43.604;3.872;2023-08-20T07:00:13;26.10;97.40
62424;DHT22;48463;43.604;3.872;2023-08-20T07:02:39;26.20;97.00
62424;DHT22;48463;43.604;3.872;2023-08-20T07:05:05;26.40;96.80
62424;DHT22;48463;43.604;3.872;2023-08-20T07:07:30;26.50;96.50
62424;DHT22;48463;43.604;3.872;2023-08-20T07:09:56;26.50;96.40
62424;DHT22;48463;43.604;3.872;2023-08-20T07:12:22;26.70;96.40
62424;DHT22;48463;43.604;3.872;2023-08-20T07:14:47;26.70;96.20
62424;DHT22;48463;43.604;3.872;2023-08-20T07:17:13;26.80;96.10
62424;DHT22;48463;43.604;3.872;2023-08-20T07:19:38;26.90;96.00
62424;DHT22;48463;43.604;3.872;2023-08-20T07:22:04;27.00;95.90
62424;DHT22;48463;43.604;3.872;2023-08-20T07:24:30;27.10;95.80
62424;DHT22;48463;43.604;3.872;2023-08-20T07:27:01;27.20;95.70
62424;DHT22;48463;43.604;3.872;2023-08-20T07:29:29;27.30;95.60
62424;DHT22;48463;43.604;3.872;2023-08-20T07:31:56;27.40;95.20
62424;DHT22;48463;43.604;3.872;2023-08-20T07:34:22;27.60;95.10
62424;DHT22;48463;43.604;3.872;2023-08-20T07:36:48;27.60;94.70
62424;DHT22;48463;43.604;3.872;2023-08-20T07:39:14;27.70;94.70
62424;DHT22;48463;43.604;3.872;2023-08-20T07:41:41;27.80;94.20
62424;DHT22;48463;43.604;3.872;2023-08-20T07:44:07;27.90;94.10
62424;DHT22;48463;43.604;3.872;2023-08-20T07:46:33;28.00;93.80
62424;DHT22;48463;43.604;3.872;2023-08-20T07:49:00;28.10;93.30
62424;DHT22;48463;43.604;3.872;2023-08-20T07:51:26;28.20;92.60
62424;DHT22;48463;43.604;3.872;2023-08-20T07:53:51;28.40;92.40
62424;DHT22;48463;43.604;3.872;2023-08-20T07:56:17;28.50;92.30
62424;DHT22;48463;43.604;3.872;2023-08-20T07:58:43;28.60;92.10
62424;DHT22;48463;43.604;3.872;2023-08-20T08:01:08;28.70;91.90
62424;DHT22;48463;43.604;3.872;2023-08-20T08:03:34;28.70;91.70
62424;DHT22;48463;43.604;3.872;2023-08-20T08:06:00;28.70;91.50
62424;DHT22;48463;43.604;3.872;2023-08-20T08:08:25;28.80;91.30
62424;DHT22;48463;43.604;3.872;2023-08-20T08:10:51;28.90;91.20
62424;DHT22;48463;43.604;3.872;2023-08-20T08:13:23;29.00;91.20
62424;DHT22;48463;43.604;3.872;2023-08-20T08:15:49;29.10;91.30
62424;DHT22;48463;43.604;3.872;2023-08-20T08:18:16;29.20;91.50
62424;DHT22;48463;43.604;3.872;2023-08-20T08:20:43;29.40;91.80
62424;DHT22;48463;43.604;3.872;2023-08-20T08:23:08;29.40;91.70
62424;DHT22;48463;43.604;3.872;2023-08-20T08:25:34;29.60;91.80
62424;DHT22;48463;43.604;3.872;2023-08-20T08:28:00;29.70;92.00
62424;DHT22;48463;43.604;3.872;2023-08-20T08:30:25;29.80;92.60
62424;DHT22;48463;43.604;3.872;2023-08-20T08:32:51;29.90;92.60
62424;DHT22;48463;43.604;3.872;2023-08-20T08:35:18;30.00;92.50
62424;DHT22;48463;43.604;3.872;2023-08-20T08:37:43;30.00;92.70
62424;DHT22;48463;43.604;3.872;2023-08-20T08:40:09;30.10;92.70
62424;DHT22;48463;43.604;3.872;2023-08-20T08:42:35;30.10;92.90
62424;DHT22;48463;43.604;3.872;2023-08-20T08:45:01;30.30;92.90
62424;DHT22;48463;43.604;3.872;2023-08-20T08:47:28;30.30;93.00
62424;DHT22;48463;43.604;3.872;2023-08-20T08:49:56;30.50;92.90
62424;DHT22;48463;43.604;3.872;2023-08-20T08:52:25;30.50;92.80
62424;DHT22;48463;43.604;3.872;2023-08-20T08:54:52;30.50;92.80
62424;DHT22;48463;43.604;3.872;2023-08-20T08:57:19;30.70;92.90
62424;DHT22;48463;43.604;3.872;2023-08-20T08:59:46;30.80;92.60
62424;DHT22;48463;43.604;3.872;2023-08-20T09:02:12;30.80;92.50
62424;DHT22;48463;43.604;3.872;2023-08-20T09:04:39;30.90;92.50
62424;DHT22;48463;43.604;3.872;2023-08-20T09:07:06;30.90;92.40
62424;DHT22;48463;43.604;3.872;2023-08-20T09:09:36;31.00;92.40
62424;DHT22;48463;43.604;3.872;2023-08-20T09:12:12;31.10;92.40
62424;DHT22;48463;43.604;3.872;2023-08-20T09:14:39;31.20;92.30
62424;DHT22;48463;43.604;3.872;2023-08-20T09:17:05;31.30;92.10
62424;DHT22;48463;43.604;3.872;2023-08-20T09:19:36;31.30;91.90
62424;DHT22;48463;43.604;3.872;2023-08-20T09:22:05;31.50;91.80
62424;DHT22;48463;43.604;3.872;2023-08-20T09:24:39;31.40;91.60
62424;DHT22;48463;43.604;3.872;2023-08-20T09:27:05;31.60;91.70
62424;DHT22;48463;43.604;3.872;2023-08-20T09:29:50;31.70;91.50
62424;DHT22;48463;43.604;3.872;2023-08-20T09:32:18;31.80;91.40
62424;DHT22;48463;43.604;3.872;2023-08-20T09:34:44;31.90;91.30
62424;DHT22;48463;43.604;3.872;2023-08-20T09:37:13;31.90;91.10
62424;DHT22;48463;43.604;3.872;2023-08-20T09:39:39;31.80;91.10
62424;DHT22;48463;43.604;3.872;2023-08-20T09:42:06;32.00;91.10
62424;DHT22;48463;43.604;3.872;2023-08-20T09:44:34;32.10;90.90
62424;DHT22;48463;43.604;3.872;2023-08-20T09:47:06;32.10;90.80
62424;DHT22;48463;43.604;3.872;2023-08-20T09:49:36;32.30;90.80
62424;DHT22;48463;43.604;3.872;2023-08-20T09:52:04;32.30;90.70
62424;DHT22;48463;43.604;3.872;2023-08-20T09:57:14;32.40;90.50
62424;DHT22;48463;43.604;3.872;2023-08-20T09:59:42;32.60;90.40
62424;DHT22;48463;43.604;3.872;2023-08-20T10:02:10;32.60;90.40
62424;DHT22;48463;43.604;3.872;2023-08-20T10:04:37;32.50;90.40
62424;DHT22;48463;43.604;3.872;2023-08-20T10:07:05;32.60;90.40
62424;DHT22;48463;43.604;3.872;2023-08-20T10:09:31;32.50;90.30
62424;DHT22;48463;43.604;3.872;2023-08-20T10:11:56;32.60;90.40
62424;DHT22;48463;43.604;3.872;2023-08-20T10:14:22;32.70;90.50
62424;DHT22;48463;43.604;3.872;2023-08-20T10:16:48;32.90;90.30
62424;DHT22;48463;43.604;3.872;2023-08-20T10:19:16;33.00;90.30
62424;DHT22;48463;43.604;3.872;2023-08-20T10:21:45;33.00;90.50
62424;DHT22;48463;43.604;3.872;2023-08-20T10:24:17;33.00;90.40
62424;DHT22;48463;43.604;3.872;2023-08-20T10:26:46;33.20;90.40
62424;DHT22;48463;43.604;3.872;2023-08-20T10:29:38;33.30;90.30
62424;DHT22;48463;43.604;3.872;2023-08-20T10:32:09;33.20;90.10
62424;DHT22;48463;43.604;3.872;2023-08-20T10:34:37;33.20;90.10
62424;DHT22;48463;43.604;3.872;2023-08-20T10:37:09;33.30;90.00
62424;DHT22;48463;43.604;3.872;2023-08-20T10:39:35;33.30;89.90
62424;DHT22;48463;43.604;3.872;2023-08-20T10:42:23;33.30;90.00
62424;DHT22;48463;43.604;3.872;2023-08-20T10:45:14;33.50;90.00
62424;DHT22;48463;43.604;3.872;2023-08-20T10:47:48;33.60;90.00
62424;DHT22;48463;43.604;3.872;2023-08-20T10:50:18;33.70;89.60
62424;DHT22;48463;43.604;3.872;2023-08-20T10:52:50;33.70;89.50
62424;DHT22;48463;43.604;3.872;2023-08-20T10:55:23;33.60;89.80
62424;DHT22;48463;43.604;3.872;2023-08-20T10:57:55;33.60;89.60
62424;DHT22;48463;43.604;3.872;2023-08-20T11:00:21;33.70;89.50
62424;DHT22;48463;43.604;3.872;2023-08-20T11:02:49;33.70;90.10
62424;DHT22;48463;43.604;3.872;2023-08-20T11:05:18;33.80;90.10
62424;DHT22;48463;43.604;3.872;2023-08-20T11:07:46;33.70;90.10
62424;DHT22;48463;43.604;3.872;2023-08-20T11:10:17;33.70;90.10
62424;DHT22;48463;43.604;3.872;2023-08-20T11:12:45;33.70;90.00
62424;DHT22;48463;43.604;3.872;2023-08-20T11:15:11;33.80;90.20
62424;DHT22;48463;43.604;3.872;2023-08-20T11:17:45;33.80;90.20
62424;DHT22;48463;43.604;3.872;2023-08-20T11:20:12;33.90;89.80
62424;DHT22;48463;43.604;3.872;2023-08-20T11:22:39;33.90;90.10
62424;DHT22;48463;43.604;3.872;2023-08-20T11:25:06;33.70;90.20
62424;DHT22;48463;43.604;3.872;2023-08-20T11:27:32;33.80;90.00
62424;DHT22;48463;43.604;3.872;2023-08-20T11:29:58;33.90;90.30
62424;DHT22;48463;43.604;3.872;2023-08-20T11:32:25;34.00;90.20
62424;DHT22;48463;43.604;3.872;2023-08-20T11:34:52;33.80;90.20
62424;DHT22;48463;43.604;3.872;2023-08-20T11:37:20;33.80;90.00
62424;DHT22;48463;43.604;3.872;2023-08-20T11:39:50;33.90;90.00
62424;DHT22;48463;43.604;3.872;2023-08-20T11:42:16;34.00;89.80
62424;DHT22;48463;43.604;3.872;2023-08-20T11:44:45;34.10;88.90
62424;DHT22;48463;43.604;3.872;2023-08-20T11:47:16;34.10;89.10
62424;DHT22;48463;43.604;3.872;2023-08-20T11:49:41;34.30;88.40
62424;DHT22;48463;43.604;3.872;2023-08-20T11:52:08;34.40;88.10
62424;DHT22;48463;43.604;3.872;2023-08-20T11:54:35;34.50;87.80
62424;DHT22;48463;43.604;3.872;2023-08-20T11:57:03;34.50;87.20
62424;DHT22;48463;43.604;3.872;2023-08-20T11:59:29;34.50;86.90
62424;DHT22;48463;43.604;3.872;2023-08-20T12:01:57;34.60;86.80
62424;DHT22;48463;43.604;3.872;2023-08-20T12:04:25;34.60;86.70
62424;DHT22;48463;43.604;3.872;2023-08-20T12:09:34;34.90;85.80
62424;DHT22;48463;43.604;3.872;2023-08-20T12:12:00;35.00;85.70
62424;DHT22;48463;43.604;3.872;2023-08-20T12:14:27;34.90;85.50
62424;DHT22;48463;43.604;3.872;2023-08-20T12:16:55;34.80;85.30
62424;DHT22;48463;43.604;3.872;2023-08-20T12:19:21;34.80;85.50
62424;DHT22;48463;43.604;3.872;2023-08-20T12:21:48;34.90;85.70
62424;DHT22;48463;43.604;3.872;2023-08-20T12:24:14;34.80;85.00
62424;DHT22;48463;43.604;3.872;2023-08-20T12:26:40;34.70;84.80
62424;DHT22;48463;43.604;3.872;2023-08-20T12:29:06;34.70;84.30
62424;DHT22;48463;43.604;3.872;2023-08-20T12:31:32;34.80;84.30
62424;DHT22;48463;43.604;3.872;2023-08-20T12:33:58;35.00;84.10
62424;DHT22;48463;43.604;3.872;2023-08-20T12:36:26;34.90;83.80
62424;DHT22;48463;43.604;3.872;2023-08-20T12:38:51;35.00;83.80
62424;DHT22;48463;43.604;3.872;2023-08-20T12:41:18;35.10;83.60
62424;DHT22;48463;43.604;3.872;2023-08-20T12:43:44;35.00;82.70
62424;DHT22;48463;43.604;3.872;2023-08-20T12:46:10;35.10;82.00
62424;DHT22;48463;43.604;3.872;2023-08-20T12:48:37;35.10;81.90
62424;DHT22;48463;43.604;3.872;2023-08-20T12:51:03;35.20;81.70
62424;DHT22;48463;43.604;3.872;2023-08-20T12:53:29;35.10;81.70
62424;DHT22;48463;43.604;3.872;2023-08-20T12:55:54;35.20;81.40
62424;DHT22;48463;43.604;3.872;2023-08-20T12:58:20;35.30;81.90
62424;DHT22;48463;43.604;3.872;2023-08-20T13:00:47;35.30;81.30
62424;DHT22;48463;43.604;3.872;2023-08-20T13:03:13;35.20;80.80
62424;DHT22;48463;43.604;3.872;2023-08-20T13:05:39;35.30;80.50
62424;DHT22;48463;43.604;3.872;2023-08-20T13:08:06;35.30;80.30
62424;DHT22;48463;43.604;3.872;2023-08-20T13:10:32;35.60;80.90
62424;DHT22;48463;43.604;3.872;2023-08-20T13:13:01;35.40;79.90
62424;DHT22;48463;43.604;3.872;2023-08-20T13:15:27;35.40;78.60
62424;DHT22;48463;43.604;3.872;2023-08-20T13:17:53;35.50;77.30
62424;DHT22;48463;43.604;3.872;2023-08-20T13:20:19;35.90;77.20
62424;DHT22;48463;43.604;3.872;2023-08-20T13:22:51;36.20;78.00
62424;DHT22;48463;43.604;3.872;2023-08-20T13:25:17;36.30;77.20
62424;DHT22;48463;43.604;3.872;2023-08-20T13:27:43;36.20;76.90
62424;DHT22;48463;43.604;3.872;2023-08-20T13:30:09;36.20;77.60
62424;DHT22;48463;43.604;3.872;2023-08-20T13:32:36;36.00;77.40
62424;DHT22;48463;43.604;3.872;2023-08-20T13:35:02;36.20;77.90
62424;DHT22;48463;43.604;3.872;2023-08-20T13:37:32;36.20;78.40
62424;DHT22;48463;43.604;3.872;2023-08-20T13:39:58;36.00;78.70
62424;DHT22;48463;43.604;3.872;2023-08-20T13:42:24;36.20;78.00
62424;DHT22;48463;43.604;3.872;2023-08-20T13:44:51;36.50;76.90
62424;DHT22;48463;43.604;3.872;2023-08-20T13:47:17;36.60;76.40
62424;DHT22;48463;43.604;3.872;2023-08-20T13:49:44;36.40;77.80
62424;DHT22;48463;43.604;3.872;2023-08-20T13:52:12;36.60;77.70
62424;DHT22;48463;43.604;3.872;2023-08-20T13:54:38;36.90;76.80
62424;DHT22;48463;43.604;3.872;2023-08-20T13:57:04;36.90;75.60
62424;DHT22;48463;43.604;3.872;2023-08-20T13:59:30;36.70;75.30
62424;DHT22;48463;43.604;3.872;2023-08-20T14:01:58;36.50;74.90
62424;DHT22;48463;43.604;3.872;2023-08-20T14:04:24;36.50;75.10
62424;DHT22;48463;43.604;3.872;2023-08-20T14:06:49;36.80;75.30
62424;DHT22;48463;43.604;3.872;2023-08-20T14:09:15;36.70;74.70
62424;DHT22;48463;43.604;3.872;2023-08-20T14:11:43;36.40;75.10
62424;DHT22;48463;43.604;3.872;2023-08-20T14:14:10;36.50;75.10
62424;DHT22;48463;43.604;3.872;2023-08-20T14:16:36;36.70;74.50
62424;DHT22;48463;43.604;3.872;2023-08-20T14:19:01;36.60;74.30
62424;DHT22;48463;43.604;3.872;2023-08-20T14:21:27;36.60;74.30
62424;DHT22;48463;43.604;3.872;2023-08-20T14:23:53;36.60;74.70
62424;DHT22;48463;43.604;3.872;2023-08-20T14:26:19;36.70;74.40
62424;DHT22;48463;43.604;3.872;2023-08-20T14:28:44;36.90;73.70
62424;DHT22;48463;43.604;3.872;2023-08-20T14:31:10;36.80;73.40
62424;DHT22;48463;43.604;3.872;2023-08-20T14:33:36;36.70;72.90
62424;DHT22;48463;43.604;3.872;2023-08-20T14:36:03;36.60;72.60
62424;DHT22;48463;43.604;3.872;2023-08-20T14:38:29;36.60;72.80
62424;DHT22;48463;43.604;3.872;2023-08-20T14:41:02;36.70;72.70
62424;DHT22;48463;43.604;3.872;2023-08-20T14:43:29;36.40;72.80
62424;DHT22;48463;43.604;3.872;2023-08-20T14:45:55;36.20;72.80
62424;DHT22;48463;43.604;3.872;2023-08-20T14:48:24;36.60;72.70
62424;DHT22;48463;43.604;3.872;2023-08-20T14:50:50;36.70;72.70
62424;DHT22;48463;43.604;3.872;2023-08-20T14:53:16;36.60;73.20
62424;DHT22;48463;43.604;3.872;2023-08-20T14:55:43;36.50;73.00
62424;DHT22;48463;43.604;3.872;2023-08-20T14:58:09;36.80;72.80
62424;DHT22;48463;43.604;3.872;2023-08-20T15:00:35;37.10;72.20
62424;DHT22;48463;43.604;3.872;2023-08-20T15:03:01;37.10;72.40
62424;DHT22;48463;43.604;3.872;2023-08-20T15:05:27;39.10;72.70
62424;DHT22;48463;43.604;3.872;2023-08-20T15:07:53;42.30;70.40
62424;DHT22;48463;43.604;3.872;2023-08-20T15:10:19;43.10;68.20
62424;DHT22;48463;43.604;3.872;2023-08-20T15:12:45;44.50;66.30
62424;DHT22;48463;43.604;3.872;2023-08-20T15:15:11;44.50;66.30
62424;DHT22;48463;43.604;3.872;2023-08-20T15:17:37;44.40;65.00
62424;DHT22;48463;43.604;3.872;2023-08-20T15:20:04;43.20;63.40
62424;DHT22;48463;43.604;3.872;2023-08-20T15:22:36;42.40;64.40
62424;DHT22;48463;43.604;3.872;2023-08-20T15:25:02;40.50;64.30
62424;DHT22;48463;43.604;3.872;2023-08-20T15:27:29;39.40;66.00
62424;DHT22;48463;43.604;3.872;2023-08-20T15:29:54;38.60;66.00
62424;DHT22;48463;43.604;3.872;2023-08-20T15:32:20;38.00;66.50
62424;DHT22;48463;43.604;3.872;2023-08-20T15:34:46;37.90;66.00
62424;DHT22;48463;43.604;3.872;2023-08-20T15:37:12;38.00;66.60